Verlaine, Belgium
Current Conditions -  °F | °C
As of 12:50 AM on Monday 24 Nov 2014 (Local Time) from EBLG Reporting Station
Broken Clouds Broken Clouds  
Wind Chill: 54°   Ceiling: 1200
Heat Index: 54°   Visibility: 4mi
Dew Point: 52°   Wind: 15mph
Humidity: 94%   Direction: 270°W
Pressure: 30.03"   Gusts: NA
Location:  50.61°N, 5.32°E
Report Text: EBLG 232350Z 27013KT 6000 SCT005 BKN012 12/11 Q1017 TEMPO 2000 RA BKN003
Loading
Personal Weather Stations






























Interactive Weather Map New forecast layout! Learn more

10-Day Weather Forecast

Advertisements
Track Severe Weather on mobile